createdAt,value
2018-08-24T00:00:02.184Z,6.92
2018-08-24T00:00:35.146Z,7.47
2018-08-24T00:01:08.070Z,7.85
2018-08-24T00:01:41.043Z,6.83
2018-08-24T00:02:14.011Z,7.33
2018-08-24T00:02:46.935Z,8.20
2018-08-24T00:03:19.878Z,7.35
2018-08-24T00:03:52.813Z,7.80
2018-08-24T00:04:25.910Z,10.15
2018-08-24T00:04:58.887Z,9.08
2018-08-24T00:05:31.902Z,9.10
2018-08-24T00:06:04.980Z,8.40
2018-08-24T00:06:39.510Z,9.90
2018-08-24T00:07:12.576Z,8.43
2018-08-24T00:07:45.601Z,9.10
2018-08-24T00:08:18.531Z,7.95
2018-08-24T00:08:52.021Z,10.13
2018-08-24T00:09:26.046Z,6.75
2018-08-24T00:09:59.172Z,8.53
2018-08-24T00:10:32.122Z,7.83
2018-08-24T00:11:05.079Z,9.08
2018-08-24T00:11:38.530Z,9.20
2018-08-24T00:12:11.466Z,8.73
2018-08-24T00:12:44.394Z,8.75
2018-08-24T00:13:17.378Z,8.38
2018-08-24T00:13:50.371Z,7.90
2018-08-24T00:14:23.322Z,7.78
2018-08-24T00:14:56.287Z,8.25
2018-08-24T00:15:29.315Z,11.25
2018-08-24T00:16:02.283Z,7.62
2018-08-24T00:16:37.139Z,7.78
2018-08-24T00:17:15.658Z,9.23
2018-08-24T00:17:48.569Z,7.62
2018-08-24T00:18:21.497Z,6.62
2018-08-24T00:18:54.463Z,7.87
2018-08-24T00:19:27.442Z,8.00
2018-08-24T00:20:01.147Z,7.72
2018-08-24T00:20:34.106Z,7.58
2018-08-24T00:21:07.093Z,6.92
2018-08-24T00:21:40.246Z,8.93
2018-08-24T00:22:13.176Z,9.10
2018-08-24T00:22:46.125Z,7.50
2018-08-24T00:23:19.074Z,8.05
2018-08-24T00:23:52.037Z,7.25
2018-08-24T00:24:24.954Z,8.68
2018-08-24T00:24:57.924Z,8.00
2018-08-24T00:25:31.140Z,7.67
2018-08-24T00:26:04.054Z,7.80
2018-08-24T00:26:37.043Z,9.83
2018-08-24T00:27:09.958Z,7.42
2018-08-24T00:27:42.889Z,8.40
2018-08-24T00:28:15.847Z,6.90
2018-08-24T00:28:48.835Z,11.05
2018-08-24T00:29:21.805Z,9.20
2018-08-24T00:29:54.880Z,10.32
2018-08-24T00:30:27.835Z,8.88
2018-08-24T00:31:00.934Z,8.63
2018-08-24T00:31:34.550Z,8.50
2018-08-24T00:32:07.603Z,7.20
2018-08-24T00:32:40.566Z,8.73
2018-08-24T00:33:13.647Z,7.67
2018-08-24T00:33:52.343Z,9.63
2018-08-24T00:34:25.294Z,9.33
2018-08-24T00:34:58.327Z,7.67
2018-08-24T00:35:31.266Z,7.92
2018-08-24T00:36:04.178Z,7.37
2018-08-24T00:36:37.120Z,8.30
2018-08-24T00:37:10.062Z,6.80
2018-08-24T00:37:43.252Z,12.53
2018-08-24T00:38:16.192Z,8.58
2018-08-24T00:38:49.112Z,9.58
2018-08-24T00:39:22.058Z,6.97
2018-08-24T00:39:55.072Z,8.70
2018-08-24T00:40:28.025Z,7.65
2018-08-24T00:41:01.014Z,7.47
2018-08-24T00:41:34.242Z,7.30
2018-08-24T00:42:07.190Z,8.78
2018-08-24T00:42:40.139Z,7.45
2018-08-24T00:43:13.050Z,7.75
2018-08-24T00:43:46.008Z,10.18
2018-08-24T00:44:19.061Z,8.63
2018-08-24T00:44:51.985Z,9.60
2018-08-24T00:45:25.175Z,7.15
2018-08-24T00:45:58.090Z,7.20
2018-08-24T00:46:31.192Z,7.35
2018-08-24T00:47:04.105Z,7.28
2018-08-24T00:47:37.120Z,7.15
2018-08-24T00:48:10.041Z,9.73
2018-08-24T00:48:43.202Z,7.37
2018-08-24T00:49:16.120Z,8.55
2018-08-24T00:49:49.065Z,7.55
2018-08-24T00:50:22.021Z,8.13
2018-08-24T00:50:55.154Z,9.80
2018-08-24T00:51:28.098Z,7.17
2018-08-24T00:52:01.113Z,7.60
2018-08-24T00:52:34.046Z,9.50
2018-08-24T00:53:07.016Z,7.50
2018-08-24T00:53:40.401Z,12.63
2018-08-24T00:54:13.472Z,7.65
2018-08-24T00:54:46.915Z,8.38
2018-08-24T00:55:19.818Z,7.40
2018-08-24T00:55:52.729Z,7.33
2018-08-24T00:56:25.660Z,7.40
2018-08-24T00:56:58.790Z,8.50
2018-08-24T00:57:31.777Z,8.08
2018-08-24T00:58:04.700Z,7.55
2018-08-24T00:58:38.633Z,7.83
2018-08-24T00:59:11.565Z,7.90
2018-08-24T00:59:44.500Z,7.78
2018-08-24T01:00:17.429Z,7.67
2018-08-24T01:00:54.701Z,9.80
2018-08-24T01:01:27.651Z,8.18
2018-08-24T01:02:00.682Z,7.10
2018-08-24T01:02:33.794Z,7.75
2018-08-24T01:03:06.744Z,8.40
2018-08-24T01:03:39.990Z,8.15
2018-08-24T01:04:12.993Z,10.65
2018-08-24T01:04:46.205Z,9.70
2018-08-24T01:05:19.170Z,7.47
2018-08-24T01:05:52.107Z,9.08
2018-08-24T01:06:25.587Z,7.70
2018-08-24T01:06:58.530Z,8.00
2018-08-24T01:07:35.876Z,8.80
2018-08-24T01:08:09.173Z,9.13
2018-08-24T01:08:44.333Z,9.60
2018-08-24T01:09:17.419Z,9.38
2018-08-24T01:09:50.437Z,7.83
2018-08-24T01:10:25.385Z,9.40
2018-08-24T01:10:58.950Z,7.58
2018-08-24T01:11:37.530Z,9.43
2018-08-24T01:12:14.538Z,7.75
2018-08-24T01:12:47.494Z,8.28
2018-08-24T01:13:20.424Z,8.35
2018-08-24T01:13:53.517Z,7.42
2018-08-24T01:14:26.414Z,7.97
2018-08-24T01:14:59.457Z,7.72
2018-08-24T01:15:38.055Z,8.20
2018-08-24T01:16:15.302Z,7.30
2018-08-24T01:16:53.776Z,8.58
2018-08-24T01:17:32.331Z,8.38
2018-08-24T01:18:10.849Z,10.30
2018-08-24T01:18:47.780Z,8.30
2018-08-24T01:19:20.734Z,10.30
2018-08-24T01:19:53.688Z,8.55
2018-08-24T01:20:30.861Z,9.80
2018-08-24T01:21:03.907Z,8.08
2018-08-24T01:21:36.836Z,7.83
2018-08-24T01:22:09.785Z,8.83
2018-08-24T01:22:42.724Z,8.15
2018-08-24T01:23:15.728Z,10.90
2018-08-24T01:23:48.716Z,10.68
2018-08-24T01:24:26.042Z,7.95
2018-08-24T01:24:58.960Z,8.63
2018-08-24T01:25:31.915Z,11.95
2018-08-24T01:26:07.259Z,8.53
2018-08-24T01:26:40.190Z,10.72
2018-08-24T01:27:13.082Z,8.38
2018-08-24T01:27:46.017Z,8.03
2018-08-24T01:28:19.602Z,9.23
2018-08-24T01:28:53.007Z,8.13
2018-08-24T01:29:25.942Z,9.50
2018-08-24T01:29:58.876Z,10.82
2018-08-24T01:30:31.821Z,7.92
2018-08-24T01:31:06.917Z,8.55
2018-08-24T01:31:39.839Z,9.40
2018-08-24T01:32:14.296Z,12.03
2018-08-24T01:32:47.197Z,13.50
2018-08-24T01:33:20.116Z,7.55
2018-08-24T01:33:53.167Z,8.55
2018-08-24T01:34:26.149Z,7.95
2018-08-24T01:34:59.195Z,8.83
2018-08-24T01:35:32.209Z,14.18
2018-08-24T01:36:05.209Z,7.85
2018-08-24T01:36:38.159Z,9.60
2018-08-24T01:37:11.130Z,9.33
2018-08-24T01:37:44.086Z,10.72
2018-08-24T01:38:17.026Z,9.03
2018-08-24T01:38:49.946Z,11.55
2018-08-24T01:39:22.926Z,8.88
2018-08-24T01:39:55.852Z,9.15
2018-08-24T01:40:28.797Z,8.65
2018-08-24T01:41:01.712Z,7.85
2018-08-24T01:41:34.715Z,8.10
2018-08-24T01:42:07.895Z,8.38
2018-08-24T01:42:40.866Z,11.40
2018-08-24T01:43:13.791Z,10.45
2018-08-24T01:43:46.700Z,10.72
2018-08-24T01:44:27.178Z,7.78
2018-08-24T01:45:00.120Z,8.45
2018-08-24T01:45:33.049Z,8.80
2018-08-24T01:46:11.473Z,7.95
2018-08-24T01:46:44.422Z,9.85
2018-08-24T01:47:17.326Z,8.20
2018-08-24T01:47:50.271Z,10.10
2018-08-24T01:48:23.201Z,8.75
2018-08-24T01:48:56.421Z,7.72
2018-08-24T01:49:29.341Z,10.18
2018-08-24T01:50:02.282Z,8.70
2018-08-24T01:50:35.216Z,8.63
2018-08-24T01:51:08.128Z,9.68
2018-08-24T01:51:41.081Z,10.05
2018-08-24T01:52:14.022Z,8.23
2018-08-24T01:52:46.946Z,10.10
2018-08-24T01:53:19.846Z,7.70
2018-08-24T01:53:52.936Z,8.30
2018-08-24T01:54:25.838Z,8.23
2018-08-24T01:54:58.838Z,8.93
2018-08-24T01:55:31.811Z,11.22
2018-08-24T01:56:04.845Z,9.35
2018-08-24T01:56:37.906Z,8.43
2018-08-24T01:57:10.865Z,12.33
2018-08-24T01:57:43.816Z,10.68
2018-08-24T01:58:16.775Z,8.48
2018-08-24T01:58:49.701Z,10.53
2018-08-24T01:59:22.626Z,14.40
2018-08-24T01:59:55.578Z,15.28
2018-08-24T02:00:28.526Z,16.07
2018-08-24T02:01:01.475Z,10.53
2018-08-24T02:01:34.411Z,12.35
2018-08-24T02:02:07.544Z,14.00
2018-08-24T02:02:40.667Z,21.40
2018-08-24T02:03:13.610Z,21.20
2018-08-24T02:03:46.675Z,20.62
2018-08-24T02:04:19.587Z,25.50
2018-08-24T02:04:52.524Z,23.90
2018-08-24T02:05:25.490Z,22.37
2018-08-24T02:06:04.009Z,18.60
2018-08-24T02:06:37.128Z,17.55
2018-08-24T02:07:10.068Z,23.50
2018-08-24T02:07:43.169Z,19.62
2018-08-24T02:08:16.106Z,19.98
2018-08-24T02:08:49.052Z,21.30
2018-08-24T02:09:22.983Z,25.50
2018-08-24T02:09:55.899Z,26.82
2018-08-24T02:10:29.368Z,24.85
2018-08-24T02:11:02.310Z,25.75
2018-08-24T02:11:35.278Z,26.90
2018-08-24T02:12:12.536Z,27.17
2018-08-24T02:12:50.882Z,30.60
2018-08-24T02:13:29.272Z,30.25
2018-08-24T02:15:08.087Z,33.10
2018-08-24T02:15:47.207Z,27.42
2018-08-24T02:16:20.205Z,21.70
2018-08-24T02:16:53.524Z,26.97
2018-08-24T02:17:31.926Z,24.70
2018-08-24T02:19:13.054Z,22.73
2018-08-24T02:19:51.458Z,18.50
2018-08-24T02:20:29.991Z,18.00
2018-08-24T02:21:08.594Z,15.50
2018-08-24T02:21:47.075Z,13.90
2018-08-24T02:22:20.046Z,14.98
2018-08-24T02:22:55.037Z,12.78
2018-08-24T02:23:28.012Z,12.80
2018-08-24T02:24:00.955Z,12.70
2018-08-24T02:24:33.870Z,13.90
2018-08-24T02:25:06.798Z,14.87
2018-08-24T02:25:39.809Z,11.80
2018-08-24T02:26:12.747Z,13.48
2018-08-24T02:26:46.365Z,13.93
2018-08-24T02:27:19.288Z,14.65
2018-08-24T02:27:52.230Z,14.65
2018-08-24T02:28:25.208Z,14.90
2018-08-24T02:28:58.164Z,13.68
2018-08-24T02:29:31.105Z,17.98
2018-08-24T02:30:04.102Z,18.60
2018-08-24T02:30:37.053Z,15.65
2018-08-24T02:31:10.027Z,19.50
2018-08-24T02:31:49.487Z,21.70
2018-08-24T02:32:22.463Z,22.27
2018-08-24T02:32:55.433Z,22.40
2018-08-24T02:33:30.041Z,23.30
2018-08-24T02:34:03.276Z,25.57
2018-08-24T02:34:36.185Z,30.57
2018-08-24T02:35:09.134Z,34.78
2018-08-24T02:35:42.119Z,27.75
2018-08-24T02:36:15.063Z,34.63
2018-08-24T02:36:48.072Z,29.80
2018-08-24T02:37:21.018Z,36.53
2018-08-24T02:37:53.961Z,28.47
2018-08-24T02:38:26.937Z,33.18
2018-08-24T02:38:59.887Z,29.52
2018-08-24T02:39:32.858Z,45.30
2018-08-24T02:40:06.284Z,45.23
2018-08-24T02:40:39.211Z,47.62
2018-08-24T02:41:12.260Z,58.38
2018-08-24T02:41:45.315Z,58.83
2018-08-24T02:42:18.294Z,61.15
2018-08-24T02:42:51.233Z,53.40
2018-08-24T02:43:24.149Z,60.05
2018-08-24T02:43:57.841Z,56.55
2018-08-24T02:44:30.789Z,55.78
2018-08-24T02:45:03.783Z,68.90
2018-08-24T02:45:36.747Z,59.48
2018-08-24T02:46:09.658Z,61.33
2018-08-24T02:46:43.544Z,68.40
2018-08-24T02:47:16.491Z,66.12
2018-08-24T02:47:49.430Z,66.22
2018-08-24T02:48:22.466Z,67.12
2018-08-24T02:48:55.386Z,70.20
2018-08-24T02:49:28.354Z,61.90
2018-08-24T02:50:01.256Z,67.03
2018-08-24T02:50:34.184Z,66.15
2018-08-24T02:51:07.105Z,68.47
2018-08-24T02:51:40.023Z,63.58
2018-08-24T02:52:13.129Z,63.33
2018-08-24T02:52:46.146Z,73.17
2018-08-24T02:53:19.132Z,71.67
2018-08-24T02:53:52.073Z,73.92
2018-08-24T02:54:25.042Z,76.25
2018-08-24T02:54:58.021Z,68.15
2018-08-24T02:55:30.985Z,69.05
2018-08-24T02:56:03.932Z,74.45
2018-08-24T02:56:36.855Z,66.62
2018-08-24T02:57:09.842Z,74.00
2018-08-24T02:57:42.765Z,70.47
2018-08-24T02:58:15.766Z,65.67
2018-08-24T02:58:48.745Z,64.60
2018-08-24T02:59:21.695Z,76.22
2018-08-24T02:59:54.621Z,71.33
2018-08-24T03:00:27.577Z,68.25
2018-08-24T03:01:00.514Z,76.10
2018-08-24T03:01:33.477Z,80.15
2018-08-24T03:02:06.434Z,69.70
2018-08-24T03:02:39.359Z,73.25
2018-08-24T03:03:12.299Z,76.47
2018-08-24T03:03:45.580Z,68.62
2018-08-24T03:04:18.505Z,80.95
2018-08-24T03:04:51.452Z,79.40
2018-08-24T03:05:24.493Z,83.05
2018-08-24T03:05:57.397Z,83.67
2018-08-24T03:06:30.395Z,76.60
2018-08-24T03:07:03.402Z,78.12
2018-08-24T03:07:36.336Z,83.05
2018-08-24T03:08:09.363Z,76.55
2018-08-24T03:08:42.630Z,86.37
2018-08-24T03:09:15.605Z,74.85
2018-08-24T03:09:48.698Z,74.82
2018-08-24T03:10:21.654Z,72.22
2018-08-24T03:10:54.605Z,81.50
2018-08-24T03:11:27.694Z,83.30
2018-08-24T03:12:07.076Z,75.40
2018-08-24T03:12:40.151Z,79.60
2018-08-24T03:13:13.113Z,76.85
2018-08-24T03:13:46.059Z,80.47
2018-08-24T03:14:19.079Z,65.78
2018-08-24T03:14:52.014Z,65.15
2018-08-24T03:15:24.937Z,68.65
2018-08-24T03:15:57.952Z,60.50
2018-08-24T03:16:30.973Z,62.65
2018-08-24T03:17:10.294Z,66.37
2018-08-24T03:17:48.886Z,63.90
2018-08-24T03:18:21.812Z,62.98
2018-08-24T03:18:56.890Z,67.50
2018-08-24T03:19:29.826Z,63.05
2018-08-24T03:20:02.758Z,59.45
2018-08-24T03:20:35.696Z,69.37
2018-08-24T03:21:08.638Z,62.95
2018-08-24T03:21:41.610Z,57.70
2018-08-24T03:22:14.527Z,60.90
2018-08-24T03:22:47.456Z,63.98
2018-08-24T03:23:20.402Z,63.75
2018-08-24T03:23:53.347Z,61.37
2018-08-24T03:24:26.404Z,60.50
2018-08-24T03:24:59.351Z,60.20
2018-08-24T03:25:32.324Z,60.63
2018-08-24T03:26:05.233Z,55.65
2018-08-24T03:26:38.159Z,55.10
2018-08-24T03:27:11.143Z,55.52
2018-08-24T03:27:44.067Z,59.95
2018-08-24T03:28:17.006Z,57.95
2018-08-24T03:28:49.954Z,55.78
2018-08-24T03:29:23.294Z,56.15
2018-08-24T03:29:56.228Z,50.05
2018-08-24T03:30:29.178Z,52.25
2018-08-24T03:31:02.374Z,53.65
2018-08-24T03:31:35.334Z,47.88
2018-08-24T03:32:08.470Z,49.50
2018-08-24T03:32:41.388Z,49.08
2018-08-24T03:33:14.616Z,50.23
2018-08-24T03:33:47.579Z,42.50
2018-08-24T03:34:20.633Z,47.10
2018-08-24T03:34:53.550Z,46.92
2018-08-24T03:35:26.515Z,48.17
2018-08-24T03:35:59.562Z,44.77
2018-08-24T03:36:32.497Z,45.98
2018-08-24T03:37:05.661Z,44.20
2018-08-24T03:37:38.629Z,50.30
2018-08-24T03:38:11.699Z,50.03
2018-08-24T03:38:44.634Z,42.05
2018-08-24T03:39:17.655Z,38.15
2018-08-24T03:39:50.603Z,46.42
2018-08-24T03:40:23.655Z,38.92
2018-08-24T03:40:56.591Z,37.58
2018-08-24T03:41:29.524Z,38.08
2018-08-24T03:42:02.593Z,41.02
2018-08-24T03:42:35.544Z,38.20
2018-08-24T03:43:08.529Z,32.15
2018-08-24T03:43:41.493Z,32.53
2018-08-24T03:44:14.454Z,37.30
2018-08-24T03:44:47.399Z,34.78
2018-08-24T03:45:20.380Z,39.60
2018-08-24T03:45:53.380Z,34.25
2018-08-24T03:46:26.428Z,31.25
2018-08-24T03:46:59.403Z,33.92
2018-08-24T03:47:32.373Z,30.40
2018-08-24T03:48:05.340Z,29.10
2018-08-24T03:48:38.255Z,33.02
2018-08-24T03:49:11.694Z,33.15
2018-08-24T03:49:44.701Z,31.95
2018-08-24T03:50:17.653Z,28.67
2018-08-24T03:50:50.800Z,36.20
2018-08-24T03:51:23.788Z,29.02
2018-08-24T03:51:56.725Z,30.82
2018-08-24T03:52:29.637Z,28.70
2018-08-24T03:53:02.557Z,30.23
2018-08-24T03:53:35.772Z,26.23
2018-08-24T03:54:14.656Z,29.37
2018-08-24T03:54:47.575Z,30.23
2018-08-24T03:55:20.525Z,31.57
2018-08-24T03:55:53.503Z,28.47
2018-08-24T03:56:26.429Z,30.20
2018-08-24T03:56:59.652Z,33.53
2018-08-24T03:57:32.601Z,24.35
2018-08-24T03:58:06.790Z,22.85
2018-08-24T03:58:39.763Z,26.80
2018-08-24T03:59:12.746Z,28.73
2018-08-24T03:59:45.746Z,23.70
2018-08-24T04:00:18.677Z,27.00
2018-08-24T04:00:56.013Z,22.67
2018-08-24T04:01:28.958Z,25.12
2018-08-24T04:02:01.956Z,25.32
2018-08-24T04:02:34.941Z,19.62
2018-08-24T04:03:07.876Z,22.85
2018-08-24T04:03:40.831Z,20.88
2018-08-24T04:04:13.774Z,25.40
2018-08-24T04:04:46.736Z,25.62
2018-08-24T04:05:19.698Z,18.90
2018-08-24T04:05:52.638Z,20.70
2018-08-24T04:06:25.599Z,18.42
2018-08-24T04:06:58.540Z,20.25
2018-08-24T04:07:31.536Z,19.00
2018-08-24T04:08:04.465Z,18.32
2018-08-24T04:08:37.410Z,17.57
2018-08-24T04:09:10.537Z,17.45
2018-08-24T04:09:43.637Z,18.07
2018-08-24T04:10:16.554Z,21.77
2018-08-24T04:10:49.484Z,16.70
2018-08-24T04:11:22.536Z,17.52
2018-08-24T04:11:55.571Z,19.17
2018-08-24T04:12:28.558Z,23.70
2018-08-24T04:13:02.156Z,19.37
2018-08-24T04:13:35.144Z,17.35
2018-08-24T04:14:08.111Z,16.52
2018-08-24T04:14:41.083Z,18.55
2018-08-24T04:15:14.030Z,16.62
2018-08-24T04:15:47.145Z,17.40
2018-08-24T04:16:20.080Z,20.35
2018-08-24T04:16:58.638Z,17.65
2018-08-24T04:17:37.111Z,19.60
2018-08-24T04:18:10.338Z,19.15
2018-08-24T04:18:43.365Z,17.20
2018-08-24T04:19:21.998Z,17.80
2018-08-24T04:19:54.965Z,15.98
2018-08-24T04:20:27.876Z,18.95
2018-08-24T04:21:01.065Z,16.97
2018-08-24T04:21:34.010Z,19.15
2018-08-24T04:22:06.982Z,18.40
2018-08-24T04:22:40.145Z,17.57
2018-08-24T04:23:13.098Z,16.97
2018-08-24T04:23:46.027Z,17.00
2018-08-24T04:24:20.049Z,19.37
2018-08-24T04:24:53.015Z,17.17
2018-08-24T04:25:25.991Z,21.10
2018-08-24T04:25:58.989Z,16.55
2018-08-24T04:26:31.977Z,17.52
2018-08-24T04:27:05.164Z,17.27
2018-08-24T04:27:38.639Z,15.70
2018-08-24T04:28:12.601Z,17.02
2018-08-24T04:28:45.552Z,18.85
2018-08-24T04:29:18.466Z,21.80
2018-08-24T04:29:51.576Z,15.60
2018-08-24T04:30:24.617Z,22.42
2018-08-24T04:30:57.555Z,20.20
2018-08-24T04:31:30.525Z,19.32
2018-08-24T04:32:03.490Z,17.52
2018-08-24T04:32:36.433Z,20.60
2018-08-24T04:33:09.382Z,20.15
2018-08-24T04:33:42.307Z,21.82
2018-08-24T04:34:15.277Z,22.82
2018-08-24T04:34:48.356Z,17.77
2018-08-24T04:35:21.371Z,16.80
2018-08-24T04:35:54.330Z,20.15
2018-08-24T04:36:28.050Z,19.95
2018-08-24T04:37:00.988Z,19.27
2018-08-24T04:37:34.656Z,20.27
2018-08-24T04:38:07.907Z,18.02
2018-08-24T04:38:40.926Z,17.35
2018-08-24T04:39:14.165Z,19.55
2018-08-24T04:39:47.164Z,20.23
2018-08-24T04:40:22.986Z,17.90
2018-08-24T04:40:56.836Z,19.55
2018-08-24T04:41:30.651Z,18.35
2018-08-24T04:42:04.228Z,21.48
2018-08-24T04:42:37.368Z,21.87
2018-08-24T04:43:10.549Z,21.95
2018-08-24T04:43:43.739Z,19.10
2018-08-24T04:44:17.143Z,19.17
2018-08-24T04:44:50.240Z,18.37
2018-08-24T04:45:23.223Z,18.70
2018-08-24T04:45:56.217Z,20.27
2018-08-24T04:46:29.214Z,21.52
2018-08-24T04:47:02.221Z,19.30
2018-08-24T04:47:35.190Z,18.23
2018-08-24T04:48:08.211Z,19.73
2018-08-24T04:48:41.166Z,20.82
2018-08-24T04:49:14.419Z,21.10
2018-08-24T04:49:47.375Z,19.07
2018-08-24T04:50:20.493Z,19.65
2018-08-24T04:50:53.524Z,19.25
2018-08-24T04:51:27.191Z,21.52
2018-08-24T04:52:01.340Z,23.98
2018-08-24T04:52:34.482Z,19.73
2018-08-24T04:53:08.079Z,20.50
2018-08-24T04:54:20.502Z,21.10
2018-08-24T04:54:53.434Z,29.75
2018-08-24T04:55:26.383Z,21.15
2018-08-24T04:55:59.327Z,21.80
2018-08-24T04:56:32.527Z,22.02
2018-08-24T04:57:05.556Z,20.62
2018-08-24T04:57:38.968Z,21.73
2018-08-24T04:58:12.136Z,22.45
2018-08-24T04:58:45.101Z,20.23
2018-08-24T04:59:18.180Z,23.00
2018-08-24T04:59:51.127Z,21.52
2018-08-24T05:00:24.193Z,20.60
2018-08-24T05:00:57.314Z,24.12
2018-08-24T05:01:30.373Z,22.13
2018-08-24T05:02:03.943Z,23.20
2018-08-24T05:02:37.120Z,21.30
2018-08-24T05:03:10.070Z,20.57
2018-08-24T05:03:43.018Z,20.50
2018-08-24T05:04:15.969Z,22.17
2018-08-24T05:04:48.990Z,24.43
2018-08-24T05:05:21.909Z,26.30
2018-08-24T05:05:54.853Z,27.73
2018-08-24T05:06:28.674Z,20.95
2018-08-24T05:07:01.653Z,26.62
2018-08-24T05:07:35.231Z,31.52
2018-08-24T05:08:08.175Z,22.77
2018-08-24T05:08:41.166Z,25.62
2018-08-24T05:09:14.184Z,26.55
2018-08-24T05:09:47.241Z,25.15
2018-08-24T05:10:20.191Z,22.62
2018-08-24T05:10:53.161Z,26.23
2018-08-24T05:11:26.201Z,26.60
2018-08-24T05:11:59.340Z,23.70
2018-08-24T05:12:32.459Z,21.90
2018-08-24T05:13:05.508Z,23.55
2018-08-24T05:13:38.658Z,27.35
2018-08-24T05:14:11.644Z,27.98
2018-08-24T05:14:44.608Z,22.17
2018-08-24T05:15:17.638Z,27.93
2018-08-24T05:15:50.601Z,26.37
2018-08-24T05:16:23.582Z,25.88
2018-08-24T05:16:56.758Z,24.95
2018-08-24T05:17:29.811Z,26.42
2018-08-24T05:18:02.778Z,24.32
2018-08-24T05:18:35.828Z,30.95
2018-08-24T05:19:08.902Z,27.93
2018-08-24T05:19:41.861Z,24.63
2018-08-24T05:20:14.957Z,29.95
2018-08-24T05:20:47.976Z,23.25
2018-08-24T05:21:21.511Z,33.92
2018-08-24T05:21:54.522Z,25.40
2018-08-24T05:22:28.325Z,30.08
2018-08-24T05:23:01.690Z,26.30
2018-08-24T05:23:34.787Z,23.25
2018-08-24T05:24:07.974Z,30.02
2018-08-24T05:24:41.257Z,25.55
2018-08-24T05:25:14.234Z,27.02
2018-08-24T05:25:47.220Z,29.20
2018-08-24T05:26:20.149Z,26.93
2018-08-24T05:26:53.279Z,28.85
2018-08-24T05:27:26.321Z,29.48
2018-08-24T05:27:59.422Z,24.57
2018-08-24T05:28:32.496Z,28.32
2018-08-24T05:29:05.442Z,27.67
2018-08-24T05:29:38.498Z,29.35
2018-08-24T05:30:11.477Z,30.00
2018-08-24T05:30:44.522Z,28.90
2018-08-24T05:31:17.639Z,30.88
2018-08-24T05:31:50.639Z,27.02
2018-08-24T05:32:23.558Z,30.88
2018-08-24T05:32:56.515Z,23.98
2018-08-24T05:33:29.628Z,25.62
2018-08-24T05:34:02.618Z,27.25
2018-08-24T05:34:35.677Z,26.77
2018-08-24T05:35:08.780Z,30.05
2018-08-24T05:35:42.134Z,27.65
2018-08-24T05:36:15.254Z,28.47
2018-08-24T05:36:48.301Z,27.25
2018-08-24T05:37:21.341Z,30.20
2018-08-24T05:37:54.338Z,28.60
2018-08-24T05:38:27.651Z,30.35
2018-08-24T05:39:00.580Z,29.52
2018-08-24T05:39:33.581Z,29.57
2018-08-24T05:40:06.580Z,27.13
2018-08-24T05:40:39.935Z,26.57
2018-08-24T05:41:13.033Z,29.42
2018-08-24T05:41:46.124Z,29.27
2018-08-24T05:42:19.159Z,30.90
2018-08-24T05:42:53.055Z,32.63
2018-08-24T05:43:26.103Z,30.92
2018-08-24T05:43:59.341Z,24.43
2018-08-24T05:44:32.389Z,25.08
2018-08-24T05:45:05.772Z,32.05
2018-08-24T05:45:38.769Z,35.08
2018-08-24T05:46:11.713Z,33.13
2018-08-24T05:46:45.054Z,32.05
2018-08-24T05:47:18.425Z,31.37
2018-08-24T05:47:52.673Z,30.15
2018-08-24T05:48:26.413Z,25.35
2018-08-24T05:49:00.669Z,29.80
2018-08-24T05:49:34.896Z,24.47
2018-08-24T05:50:08.540Z,29.55
2018-08-24T05:50:41.631Z,26.70
2018-08-24T05:51:14.678Z,26.35
2018-08-24T05:51:48.612Z,27.77
2018-08-24T05:52:21.774Z,28.60
2018-08-24T05:52:55.403Z,26.52
2018-08-24T05:53:28.398Z,27.25
2018-08-24T05:54:01.386Z,27.45
2018-08-24T05:54:34.519Z,27.77
2018-08-24T05:55:07.490Z,28.17
2018-08-24T05:55:40.853Z,22.93
2018-08-24T05:56:13.859Z,32.28
2018-08-24T05:56:46.973Z,26.73
2018-08-24T05:57:20.175Z,27.15
2018-08-24T05:57:53.096Z,24.07
2018-08-24T05:58:26.601Z,29.60
2018-08-24T05:58:59.986Z,29.90
2018-08-24T05:59:32.972Z,25.88
2018-08-24T06:00:05.936Z,25.00
2018-08-24T06:00:40.505Z,24.85
2018-08-24T06:01:13.539Z,31.85
2018-08-24T06:01:46.552Z,29.98
2018-08-24T06:02:19.562Z,26.57
2018-08-24T06:02:52.612Z,33.02
2018-08-24T06:03:25.813Z,26.42
2018-08-24T06:03:59.130Z,27.20
2018-08-24T06:04:32.121Z,30.82
2018-08-24T06:05:05.153Z,30.68
2018-08-24T06:05:42.549Z,31.50
2018-08-24T06:06:15.700Z,28.00
2018-08-24T06:06:48.785Z,25.85
2018-08-24T06:07:22.813Z,31.57
2018-08-24T06:07:55.968Z,24.45
2018-08-24T06:08:29.578Z,30.65
2018-08-24T06:09:08.113Z,28.23
2018-08-24T06:09:41.218Z,30.30
2018-08-24T06:10:14.772Z,25.23
2018-08-24T06:10:47.996Z,24.72
2018-08-24T06:11:21.311Z,29.00
2018-08-24T06:11:54.648Z,29.67
2018-08-24T06:12:27.748Z,22.62
2018-08-24T06:13:02.667Z,23.32
2018-08-24T06:13:35.803Z,23.02
2018-08-24T06:14:09.664Z,26.85
2018-08-24T06:14:42.763Z,25.70
2018-08-24T06:15:15.989Z,26.48
2018-08-24T06:15:50.014Z,34.15
2018-08-24T06:16:23.063Z,28.17
2018-08-24T06:17:01.618Z,29.27
2018-08-24T06:17:40.103Z,32.90
2018-08-24T06:18:13.160Z,23.70
2018-08-24T06:18:46.176Z,26.90
2018-08-24T06:19:19.575Z,24.87
2018-08-24T06:19:52.694Z,24.82
2018-08-24T06:20:25.699Z,27.32
2018-08-24T06:20:58.769Z,28.77
2018-08-24T06:21:32.829Z,23.50
2018-08-24T06:22:05.869Z,29.77
2018-08-24T06:22:39.771Z,30.00
2018-08-24T06:23:13.017Z,30.27
2018-08-24T06:23:46.094Z,24.32
2018-08-24T06:24:19.381Z,23.47
2018-08-24T06:24:52.444Z,23.35
2018-08-24T06:25:26.313Z,24.20
2018-08-24T06:25:59.506Z,31.23
2018-08-24T06:26:32.573Z,25.90
2018-08-24T06:27:07.183Z,22.90
2018-08-24T06:27:40.441Z,25.55
2018-08-24T06:28:13.559Z,25.45
2018-08-24T06:28:46.676Z,25.23
2018-08-24T06:29:20.132Z,25.10
2018-08-24T06:29:53.226Z,26.25
2018-08-24T06:30:26.339Z,27.50
2018-08-24T06:30:59.532Z,25.32
2018-08-24T06:31:32.536Z,26.12
2018-08-24T06:32:06.590Z,24.40
2018-08-24T06:32:40.309Z,22.62
2018-08-24T06:33:13.400Z,22.27
2018-08-24T06:33:46.542Z,26.17
2018-08-24T06:34:19.617Z,24.45
2018-08-24T06:34:52.568Z,26.27
2018-08-24T06:35:25.541Z,23.12
2018-08-24T06:35:58.545Z,27.32
2018-08-24T06:36:31.483Z,22.00
2018-08-24T06:37:04.524Z,25.57
2018-08-24T06:37:38.481Z,25.82
2018-08-24T06:38:12.167Z,25.55
2018-08-24T06:38:45.325Z,26.02
2018-08-24T06:39:19.227Z,26.85
2018-08-24T06:39:55.500Z,26.93
2018-08-24T06:40:32.142Z,26.75
2018-08-24T06:41:06.425Z,23.50
2018-08-24T06:41:39.416Z,23.45
2018-08-24T06:42:12.449Z,29.60
2018-08-24T06:42:45.346Z,24.57
2018-08-24T06:43:18.412Z,24.90
2018-08-24T06:43:51.381Z,29.45
2018-08-24T06:44:24.352Z,24.90
2018-08-24T06:44:57.389Z,25.77
2018-08-24T06:45:30.412Z,29.30
2018-08-24T06:46:03.538Z,24.43
2018-08-24T06:46:36.949Z,22.42
2018-08-24T06:47:10.087Z,25.90
2018-08-24T06:47:43.351Z,23.02
2018-08-24T06:48:16.936Z,22.20
2018-08-24T06:48:49.945Z,20.43
2018-08-24T06:49:22.933Z,22.17
2018-08-24T06:49:56.089Z,21.45
2018-08-24T06:50:29.132Z,23.42
2018-08-24T06:51:02.266Z,22.32
2018-08-24T06:51:35.259Z,21.30
2018-08-24T06:52:08.246Z,22.48
2018-08-24T06:52:41.789Z,21.30
2018-08-24T06:53:17.570Z,23.95
2018-08-24T06:53:52.931Z,23.55
2018-08-24T06:54:29.603Z,23.65
2018-08-24T06:55:03.245Z,26.90
2018-08-24T06:55:36.800Z,24.12
2018-08-24T06:56:09.770Z,24.27
2018-08-24T06:56:42.660Z,25.52
2018-08-24T06:57:16.341Z,25.08
2018-08-24T06:57:49.468Z,22.05
2018-08-24T06:58:22.460Z,22.90
2018-08-24T06:58:55.463Z,25.50
2018-08-24T06:59:28.465Z,26.45
2018-08-24T07:00:01.845Z,23.12
2018-08-24T07:00:35.085Z,25.92
2018-08-24T07:01:08.169Z,21.97
2018-08-24T07:01:46.685Z,21.17
2018-08-24T07:02:24.770Z,23.85
2018-08-24T07:03:03.246Z,25.27
2018-08-24T07:03:41.833Z,22.87
2018-08-24T07:04:19.257Z,21.70
2018-08-24T07:04:56.845Z,22.00
2018-08-24T07:05:34.169Z,21.90
2018-08-24T07:06:07.195Z,23.67
2018-08-24T07:06:40.302Z,25.17
2018-08-24T07:07:13.307Z,22.07
2018-08-24T07:07:46.303Z,23.15
2018-08-24T07:08:19.276Z,19.12
2018-08-24T07:08:52.310Z,27.52
2018-08-24T07:09:25.247Z,22.20
2018-08-24T07:09:58.265Z,20.65
2018-08-24T07:10:31.268Z,26.07
2018-08-24T07:11:09.023Z,21.52
2018-08-24T07:11:46.472Z,19.73
2018-08-24T07:12:24.356Z,22.02
2018-08-24T07:13:02.586Z,20.43
2018-08-24T07:13:40.133Z,21.35
2018-08-24T07:14:17.828Z,24.95
2018-08-24T07:14:50.900Z,24.98
2018-08-24T07:15:24.471Z,28.55
2018-08-24T07:15:57.447Z,20.25
2018-08-24T07:16:30.405Z,21.37
2018-08-24T07:17:03.606Z,20.65